Time;durP1;ratioP1;P1;durP2;ratioP2;P2;SDS_P1;SDS_P2;PMS_P1;PMS_P2;Temp;Humidity;BMP_temperature;BMP_pressure;BME280_temperature;BME280_humidity;BME280_pressure;Samples;Min_cycle;Max_cycle;Signal;HPM_P1;HPM_P2
2023/02/09 00:10:14;;;;;;;4.03;2.67;;;20.20;54.10;;;;;;4975958;28;92137;-85
2023/02/09 00:15:24;;;;;;;2.95;2.10;;;20.20;53.90;;;;;;4976138;28;92219;-85
2023/02/09 00:17:50;;;;;;;3.28;2.55;;;20.10;54.00;;;;;;4975847;28;91978;-85
2023/02/09 00:20:17;;;;;;;3.50;2.65;;;20.10;54.00;;;;;;4976528;28;94193;-86
2023/02/09 00:22:43;;;;;;;3.97;2.60;;;20.10;54.00;;;;;;4965106;28;93345;-85
2023/02/09 00:25:09;;;;;;;3.47;2.70;;;20.10;54.00;;;;;;4976493;28;91852;-85
2023/02/09 00:27:34;;;;;;;5.68;2.78;;;20.10;54.00;;;;;;4975937;28;92435;-85
2023/02/09 00:30:00;;;;;;;2.60;2.40;;;20.10;54.20;;;;;;4975338;28;94549;-86
2023/02/09 00:32:38;;;;;;;3.33;2.60;;;20.10;54.20;;;;;;4973734;28;96975;-85
2023/02/09 00:35:06;;;;;;;4.32;2.50;;;20.00;53.90;;;;;;4976887;28;92502;-86
2023/02/09 00:37:34;;;;;;;4.28;2.53;;;20.00;53.90;;;;;;4975740;28;92163;-85
2023/02/09 00:39:59;;;;;;;4.38;2.40;;;20.00;53.90;;;;;;4974838;28;93569;-85
2023/02/09 00:42:25;;;;;;;3.58;2.60;;;20.00;53.90;;;;;;4975336;28;92753;-85
2023/02/09 00:52:57;;;;;;;4.18;2.53;;;19.90;53.80;;;;;;4946445;28;96702;-85
2023/02/09 00:55:23;;;;;;;2.90;2.03;;;19.90;53.90;;;;;;4974807;28;93504;-85
2023/02/09 00:57:48;;;;;;;3.80;2.25;;;19.90;53.90;;;;;;4974738;28;92929;-85
2023/02/09 01:00:16;;;;;;;3.60;2.30;;;19.80;54.00;;;;;;4974726;28;92768;-84
2023/02/09 01:02:41;;;;;;;2.88;2.33;;;19.80;53.90;;;;;;4975011;28;93071;-85
2023/02/09 01:05:07;;;;;;;3.28;2.30;;;19.80;53.90;;;;;;4975731;28;93313;-85
2023/02/09 01:07:33;;;;;;;3.28;2.40;;;19.80;53.90;;;;;;4966761;28;92450;-84
2023/02/09 01:09:59;;;;;;;2.55;2.05;;;19.80;53.90;;;;;;4974572;28;92387;-85
2023/02/09 01:12:27;;;;;;;2.90;2.38;;;19.80;53.90;;;;;;4974717;28;92454;-85
2023/02/09 01:15:02;;;;;;;4.80;2.65;;;19.80;53.80;;;;;;4975003;28;92980;-85
2023/02/09 01:17:28;;;;;;;3.45;2.33;;;19.70;53.80;;;;;;4976334;28;92383;-84
2023/02/09 01:29:59;;;;;;;3.55;2.58;;;19.70;53.80;;;;;;4974148;28;92619;-85
2023/02/09 01:32:25;;;;;;;3.63;2.47;;;19.60;53.80;;;;;;4974925;28;92255;-84
2023/02/09 01:34:54;;;;;;;4.68;2.55;;;19.60;53.90;;;;;;4975781;28;93400;-85
2023/02/09 01:37:20;;;;;;;3.13;2.63;;;19.60;53.80;;;;;;4974213;28;93421;-85
2023/02/09 01:53:16;;;;;;;2.80;2.30;;;19.50;53.70;;;;;;4973979;28;93511;-84
2023/02/09 01:55:49;;;;;;;4.07;3.00;;;19.50;53.60;;;;;;4974473;28;92338;-85
2023/02/09 01:58:17;;;;;;;4.22;2.83;;;19.50;53.60;;;;;;4973289;28;93611;-84
2023/02/09 02:00:44;;;;;;;3.75;2.55;;;19.50;53.50;;;;;;4974453;28;93352;-85
2023/02/09 02:03:15;;;;;;;2.90;2.30;;;19.50;53.70;;;;;;4974867;28;92558;-85
2023/02/09 02:05:44;;;;;;;2.75;2.05;;;19.50;53.80;;;;;;4974706;28;91924;-85
2023/02/09 02:08:27;;;;;;;2.60;2.22;;;19.40;53.70;;;;;;4974936;28;93689;-84
2023/02/09 02:10:53;;;;;;;3.72;2.50;;;19.40;53.80;;;;;;4974611;28;98160;-85
2023/02/09 02:13:19;;;;;;;3.10;2.17;;;19.40;53.70;;;;;;4972473;28;92596;-85
2023/02/09 02:16:05;;;;;;;3.35;2.38;;;19.40;53.80;;;;;;4963161;28;92700;-85
2023/02/09 02:32:13;;;;;;;2.92;2.33;;;19.30;53.50;;;;;;4973355;28;96733;-85
2023/02/09 02:34:57;;;;;;;3.95;2.40;;;19.30;53.40;;;;;;4973685;28;93181;-84
2023/02/09 02:38:00;;;;;;;2.28;1.73;;;19.30;53.40;;;;;;4973835;28;92377;-84
2023/02/09 02:41:18;;;;;;;2.33;2.03;;;19.30;53.30;;;;;;4974316;28;92976;-84
2023/02/09 02:43:47;;;;;;;3.60;2.60;;;19.30;53.40;;;;;;4973354;28;93526;-84
2023/02/09 02:46:25;;;;;;;2.83;2.40;;;19.20;53.30;;;;;;4973941;28;93448;-85
2023/02/09 02:48:55;;;;;;;2.97;2.22;;;19.20;53.20;;;;;;4988542;28;99137;-84
2023/02/09 03:02:23;;;;;;;3.05;2.38;;;19.10;53.40;;;;;;4973098;28;92316;-84
2023/02/09 03:04:54;;;;;;;3.28;2.40;;;19.10;53.20;;;;;;4974549;28;92602;-84
2023/02/09 03:07:19;;;;;;;2.30;2.00;;;19.10;53.30;;;;;;4973605;28;93458;-84
2023/02/09 03:09:50;;;;;;;2.55;2.10;;;19.10;53.40;;;;;;4975255;28;93328;-85
2023/02/09 03:12:49;;;;;;;3.53;2.45;;;19.10;53.20;;;;;;4976745;28;101288;-85
2023/02/09 03:18:41;;;;;;;2.75;2.05;;;19.20;52.90;;;;;;4977004;28;93052;-85
2023/02/09 03:21:24;;;;;;;2.67;2.10;;;19.10;53.10;;;;;;4945012;28;93874;-85
2023/02/09 03:24:08;;;;;;;3.40;2.20;;;19.20;53.20;;;;;;4945065;28;92396;-85
2023/02/09 03:26:40;;;;;;;3.38;2.20;;;19.30;53.20;;;;;;4944877;28;92408;-85
2023/02/09 03:29:08;;;;;;;3.25;2.03;;;19.40;53.20;;;;;;4945703;28;92998;-85
2023/02/09 03:31:34;;;;;;;3.63;1.88;;;19.50;53.00;;;;;;4927374;28;96293;-84
2023/02/09 03:34:00;;;;;;;2.72;2.00;;;19.70;52.90;;;;;;4946154;28;92184;-85
2023/02/09 03:36:32;;;;;;;2.53;2.00;;;19.80;52.90;;;;;;4945447;28;91742;-85
2023/02/09 03:38:57;;;;;;;3.25;2.10;;;20.00;52.80;;;;;;4945020;28;93940;-85
2023/02/09 03:41:23;;;;;;;2.47;2.00;;;20.10;52.50;;;;;;4945057;28;92774;-85
2023/02/09 03:46:33;;;;;;;3.80;2.40;;;20.20;52.40;;;;;;4943766;28;92268;-85
2023/02/09 03:48:58;;;;;;;2.47;2.13;;;20.20;52.20;;;;;;4945297;28;93747;-85
2023/02/09 03:51:24;;;;;;;2.80;2.20;;;20.20;52.20;;;;;;4944730;28;92753;-85
2023/02/09 03:53:49;;;;;;;2.75;2.30;;;20.20;52.20;;;;;;4943923;28;92665;-85
2023/02/09 03:56:15;;;;;;;3.22;2.50;;;20.10;52.30;;;;;;4946018;28;93062;-85
2023/02/09 03:58:41;;;;;;;2.97;1.98;;;20.10;52.50;;;;;;4965752;28;94142;-85
2023/02/09 04:04:30;;;;;;;3.25;2.13;;;20.00;52.60;;;;;;4976631;28;92341;-86
2023/02/09 04:06:55;;;;;;;2.47;2.05;;;19.90;52.70;;;;;;4975931;28;91910;-86
2023/02/09 04:09:21;;;;;;;2.50;2.30;;;19.90;52.60;;;;;;4975509;28;94530;-86
2023/02/09 04:11:49;;;;;;;2.45;2.10;;;19.90;52.90;;;;;;4974776;28;98447;-86
2023/02/09 04:14:17;;;;;;;3.17;2.35;;;19.80;52.90;;;;;;4976887;28;91977;-84
2023/02/09 04:16:43;;;;;;;2.40;1.83;;;19.90;53.00;;;;;;4975318;28;92437;-84
2023/02/09 04:26:10;;;;;;;2.90;2.28;;;19.80;53.00;;;;;;4976494;28;92407;-84
2023/02/09 04:28:36;;;;;;;2.55;2.08;;;19.70;52.80;;;;;;4990811;28;91673;-84
2023/02/09 04:31:02;;;;;;;2.63;1.83;;;19.70;52.90;;;;;;4975512;28;93334;-84
2023/02/09 04:33:28;;;;;;;2.10;1.90;;;19.70;52.80;;;;;;4990653;28;95409;-84
2023/02/09 04:35:53;;;;;;;2.85;2.15;;;19.70;52.80;;;;;;4975079;28;93515;-84
2023/02/09 04:45:06;;;;;;;2.50;2.10;;;19.90;52.70;;;;;;4975822;28;92657;-85
2023/02/09 04:47:34;;;;;;;2.00;1.65;;;19.90;52.80;;;;;;5012400;28;92436;-84
2023/02/09 04:49:59;;;;;;;2.13;1.92;;;19.90;52.70;;;;;;5013603;28;92302;-84
2023/02/09 04:52:25;;;;;;;2.15;1.73;;;19.90;52.50;;;;;;5011534;28;93476;-85
2023/02/09 04:54:50;;;;;;;2.50;2.10;;;19.80;52.60;;;;;;5012541;28;92254;-84
2023/02/09 05:00:00;;;;;;;2.33;1.85;;;19.80;52.30;;;;;;5012197;28;92123;-84
2023/02/09 05:15:58;;;;;;;2.67;1.88;;;19.70;52.50;;;;;;5012541;28;92445;-84
2023/02/09 05:18:24;;;;;;;2.33;2.13;;;19.70;52.40;;;;;;4996914;28;93540;-85
2023/02/09 05:20:50;;;;;;;2.53;1.80;;;19.70;52.40;;;;;;4973868;28;92152;-85
2023/02/09 05:23:16;;;;;;;2.17;1.98;;;19.70;52.40;;;;;;4975626;28;91840;-84
2023/02/09 05:25:41;;;;;;;2.10;1.77;;;19.80;52.40;;;;;;4973675;28;97667;-85
2023/02/09 05:31:32;;;;;;;2.47;1.80;;;19.80;52.30;;;;;;4974471;28;92883;-85
2023/02/09 05:33:59;;;;;;;2.67;2.22;;;19.70;52.10;;;;;;4974791;28;92551;-84
2023/02/09 05:36:25;;;;;;;3.03;2.15;;;19.70;52.20;;;;;;4974893;28;93673;-84
2023/02/09 05:38:51;;;;;;;2.33;1.80;;;19.70;52.20;;;;;;4974265;28;93226;-84
2023/02/09 05:44:01;;;;;;;2.60;1.90;;;19.70;52.10;;;;;;4974626;28;92479;-85
2023/02/09 05:46:26;;;;;;;2.33;1.95;;;19.70;52.00;;;;;;4972715;28;96425;-85
2023/02/09 05:48:52;;;;;;;3.08;2.22;;;19.70;52.00;;;;;;4975044;28;92962;-84
2023/02/09 05:51:18;;;;;;;2.65;1.90;;;19.70;52.00;;;;;;4966539;28;92392;-84
2023/02/09 05:53:43;;;;;;;2.28;2.08;;;19.70;52.10;;;;;;4974377;28;92063;-84
2023/02/09 05:56:24;;;;;;;2.08;1.88;;;19.80;52.10;;;;;;4974906;28;94496;-84
2023/02/09 05:58:50;;;;;;;2.38;1.90;;;19.80;52.00;;;;;;4970896;28;100289;-85
2023/02/09 06:01:15;;;;;;;1.77;1.63;;;19.80;52.00;;;;;;4971630;28;92186;-84
2023/02/09 06:03:41;;;;;;;3.28;2.08;;;19.70;51.80;;;;;;4962656;28;92676;-85
2023/02/09 06:06:06;;;;;;;2.28;1.80;;;19.80;51.90;;;;;;4971883;28;93623;-84
2023/02/09 06:08:32;;;;;;;2.20;2.00;;;19.70;51.90;;;;;;4971697;28;93402;-85
2023/02/09 06:10:58;;;;;;;2.13;1.83;;;19.70;51.80;;;;;;4972194;28;92289;-84
2023/02/09 06:13:24;;;;;;;4.05;1.80;;;19.70;51.90;;;;;;4971467;28;91725;-84
2023/02/09 06:15:49;;;;;;;2.65;2.00;;;19.70;51.70;;;;;;4961656;28;95253;-84
2023/02/09 06:18:15;;;;;;;2.35;1.70;;;19.70;51.80;;;;;;4969221;28;92769;-84
2023/02/09 06:20:40;;;;;;;2.25;1.70;;;19.70;51.80;;;;;;4968624;28;93353;-84
2023/02/09 06:23:06;;;;;;;3.75;2.00;;;19.80;52.00;;;;;;4969887;28;92004;-84
2023/02/09 06:25:32;;;;;;;2.38;2.05;;;19.80;51.60;;;;;;4969611;28;93371;-84
2023/02/09 06:27:57;;;;;;;2.47;1.85;;;19.90;51.60;;;;;;4971435;28;92353;-84
2023/02/09 06:30:23;;;;;;;2.35;2.10;;;19.90;51.70;;;;;;4973986;28;92286;-84
2023/02/09 06:32:48;;;;;;;2.28;2.00;;;19.90;51.50;;;;;;4973925;28;92511;-84
2023/02/09 06:35:14;;;;;;;2.20;1.77;;;19.90;51.40;;;;;;4974305;28;93623;-84
2023/02/09 06:37:40;;;;;;;2.30;1.90;;;19.80;51.20;;;;;;4974132;28;93813;-84
2023/02/09 06:40:05;;;;;;;1.80;1.67;;;19.90;51.30;;;;;;4972051;28;92003;-85
2023/02/09 06:42:42;;;;;;;2.70;2.13;;;19.80;51.40;;;;;;4973878;28;92621;-84
2023/02/09 06:45:10;;;;;;;2.67;1.80;;;19.80;51.40;;;;;;4975168;28;94703;-85
2023/02/09 06:47:36;;;;;;;2.30;1.85;;;19.80;51.50;;;;;;4976977;28;94378;-85
2023/02/09 06:50:02;;;;;;;2.17;1.92;;;19.80;51.30;;;;;;4993191;28;92345;-85
2023/02/09 06:52:27;;;;;;;2.28;1.95;;;19.80;51.50;;;;;;4992825;28;92387;-84
2023/02/09 06:54:53;;;;;;;2.67;2.00;;;19.80;51.40;;;;;;4976873;28;93700;-84
2023/02/09 06:57:18;;;;;;;2.47;2.00;;;19.80;51.40;;;;;;4976974;28;94029;-85
2023/02/09 06:59:44;;;;;;;1.90;1.63;;;19.80;51.30;;;;;;4977076;28;92627;-84
2023/02/09 07:02:10;;;;;;;2.15;1.70;;;19.80;51.30;;;;;;4978309;28;91627;-84
2023/02/09 07:04:35;;;;;;;1.90;1.70;;;19.80;51.20;;;;;;4976302;28;93790;-84
2023/02/09 07:13:54;;;;;;;2.55;1.80;;;19.80;51.10;;;;;;4976265;28;92623;-84
2023/02/09 07:16:20;;;;;;;2.08;1.80;;;19.90;51.10;;;;;;4976667;28;93272;-84
2023/02/09 07:18:45;;;;;;;2.13;1.90;;;19.90;51.20;;;;;;4977170;28;93904;-85
2023/02/09 07:21:17;;;;;;;2.35;1.83;;;19.90;51.00;;;;;;4977146;28;92152;-84
2023/02/09 07:23:43;;;;;;;2.28;1.63;;;19.90;51.10;;;;;;4976843;28;92130;-84
2023/02/09 07:26:14;;;;;;;2.25;1.90;;;19.80;51.00;;;;;;4977251;28;92964;-85
2023/02/09 07:28:39;;;;;;;3.40;2.10;;;19.80;50.90;;;;;;4976362;28;92469;-84
2023/02/09 07:31:08;;;;;;;3.40;1.88;;;20.00;50.30;;;;;;4976750;28;92697;-84
2023/02/09 07:33:34;;;;;;;3.22;2.28;;;19.90;49.50;;;;;;4968566;28;92226;-84
2023/02/09 07:36:06;;;;;;;2.35;1.88;;;20.00;49.80;;;;;;4975725;28;93879;-83
2023/02/09 07:38:38;;;;;;;2.88;2.45;;;20.00;49.70;;;;;;4975410;28;95059;-84
2023/02/09 07:44:25;;;;;;;3.03;2.13;;;20.10;49.80;;;;;;4975463;28;92542;-85
2023/02/09 07:46:53;;;;;;;2.47;2.15;;;20.10;49.80;;;;;;4976719;28;93761;-84
2023/02/09 07:49:18;;;;;;;2.30;1.98;;;20.10;50.00;;;;;;4991543;28;95301;-86
2023/02/09 07:51:44;;;;;;;5.65;3.20;;;20.10;50.20;;;;;;4974890;28;92554;-85
2023/02/09 07:54:20;;;;;;;4.50;2.50;;;20.00;48.80;;;;;;4975380;28;91677;-85
2023/02/09 07:56:46;;;;;;;3.25;2.60;;;20.10;49.50;;;;;;4965276;28;94056;-85
2023/02/09 07:59:11;;;;;;;2.95;2.38;;;20.20;49.00;;;;;;4972976;28;92573;-84
2023/02/09 08:01:37;;;;;;;3.03;2.08;;;20.20;49.40;;;;;;4975187;28;93328;-84
2023/02/09 08:04:03;;;;;;;3.60;2.58;;;20.10;49.70;;;;;;4967312;28;92197;-85
2023/02/09 08:06:36;;;;;;;3.17;2.00;;;20.10;49.90;;;;;;4973936;28;93424;-84
2023/02/09 08:09:03;;;;;;;4.53;2.45;;;20.10;50.20;;;;;;4973813;28;93641;-84
2023/02/09 08:11:34;;;;;;;2.47;2.10;;;20.00;50.20;;;;;;4975874;28;91828;-84
2023/02/09 08:14:03;;;;;;;5.53;2.53;;;20.00;50.30;;;;;;4976961;28;91985;-84
2023/02/09 08:16:35;;;;;;;2.80;2.33;;;20.00;50.40;;;;;;4974802;28;94460;-84
2023/02/09 08:19:09;;;;;;;6.70;2.50;;;19.90;50.40;;;;;;4975689;28;93128;-84
2023/02/09 08:21:39;;;;;;;5.70;2.30;;;19.90;50.30;;;;;;4977223;28;92476;-86
2023/02/09 08:24:06;;;;;;;5.43;2.60;;;19.90;50.50;;;;;;4974169;28;92261;-85
2023/02/09 08:26:33;;;;;;;4.32;2.72;;;20.00;50.40;;;;;;4976962;28;94710;-85
2023/02/09 08:28:59;;;;;;;4.80;2.40;;;20.00;50.50;;;;;;4977518;28;94020;-86
2023/02/09 08:31:30;;;;;;;3.53;2.42;;;19.90;50.50;;;;;;4979128;28;92578;-84
2023/02/09 08:33:55;;;;;;;4.07;2.15;;;19.80;50.40;;;;;;4977741;28;92329;-84
2023/02/09 08:36:21;;;;;;;4.68;2.40;;;19.80;50.70;;;;;;4976591;28;92531;-85
2023/02/09 08:38:47;;;;;;;3.40;2.45;;;19.90;51.00;;;;;;4977185;28;93151;-85
2023/02/09 08:41:14;;;;;;;3.40;2.20;;;19.90;50.70;;;;;;4978486;28;92121;-85
2023/02/09 08:43:55;;;;;;;4.22;2.38;;;19.80;50.90;;;;;;4978946;28;91572;-85
2023/02/09 08:46:21;;;;;;;3.40;2.40;;;19.80;51.10;;;;;;4976414;28;94626;-85
2023/02/09 08:48:47;;;;;;;6.50;2.55;;;19.80;51.20;;;;;;4965934;28;93471;-84
2023/02/09 08:51:14;;;;;;;9.32;3.17;;;19.70;51.40;;;;;;4924472;28;93633;-85
2023/02/09 08:53:42;;;;;;;7.30;2.78;;;19.70;51.40;;;;;;4976230;28;92147;-85
2023/02/09 08:56:23;;;;;;;8.27;3.47;;;19.70;51.50;;;;;;4976781;28;93620;-84
2023/02/09 08:58:49;;;;;;;9.77;3.75;;;19.80;51.60;;;;;;4976124;28;96731;-84
2023/02/09 09:01:14;;;;;;;5.85;2.95;;;19.80;51.40;;;;;;4975021;28;92477;-85
2023/02/09 09:03:41;;;;;;;15.60;5.28;;;20.00;51.30;;;;;;4975170;28;91989;-85
2023/02/09 09:06:08;;;;;;;17.92;4.55;;;20.10;50.20;;;;;;4973211;28;95510;-85
2023/02/09 09:08:36;;;;;;;12.57;5.60;;;20.10;50.40;;;;;;4974379;28;92762;-85
2023/02/09 09:11:05;;;;;;;21.02;4.80;;;20.10;50.10;;;;;;4975917;28;92305;-85
2023/02/09 09:13:32;;;;;;;10.02;4.25;;;20.20;50.10;;;;;;4974537;28;92488;-85
2023/02/09 09:16:01;;;;;;;11.95;4.43;;;20.20;50.30;;;;;;4974495;28;94100;-85
2023/02/09 09:18:26;;;;;;;13.15;4.00;;;20.20;50.20;;;;;;4975051;28;94426;-86
2023/02/09 09:20:52;;;;;;;12.50;4.20;;;20.20;50.10;;;;;;4973544;28;92339;-85
2023/02/09 09:23:19;;;;;;;13.95;4.13;;;20.20;50.00;;;;;;4975790;28;91966;-85
2023/02/09 09:25:45;;;;;;;14.13;4.43;;;20.20;50.00;;;;;;4973318;28;96714;-85
2023/02/09 09:28:11;;;;;;;12.98;4.18;;;20.20;50.10;;;;;;4974884;28;93435;-85
2023/02/09 09:30:55;;;;;;;12.55;4.75;;;20.20;50.20;;;;;;4974739;28;93652;-85
2023/02/09 09:33:21;;;;;;;11.32;4.40;;;20.10;50.40;;;;;;4975782;28;91625;-85
2023/02/09 09:35:47;;;;;;;12.82;4.18;;;20.10;50.30;;;;;;4974916;28;93844;-85
2023/02/09 09:38:12;;;;;;;14.70;4.65;;;20.10;50.50;;;;;;4975261;28;94244;-85
2023/02/09 09:40:40;;;;;;;22.60;5.05;;;20.00;50.60;;;;;;4974788;28;93288;-85
2023/02/09 09:43:21;;;;;;;11.15;4.57;;;20.00;50.50;;;;;;4974379;28;92509;-85
2023/02/09 09:45:47;;;;;;;10.70;4.38;;;20.00;50.50;;;;;;4974729;28;93695;-85
2023/02/09 09:48:22;;;;;;;14.98;4.72;;;20.00;50.80;;;;;;4974989;28;93484;-85
2023/02/09 09:50:55;;;;;;;12.52;4.25;;;20.00;50.70;;;;;;4973534;28;92137;-85
2023/02/09 09:53:27;;;;;;;12.73;4.82;;;19.90;50.90;;;;;;4975457;28;91896;-85
2023/02/09 09:55:58;;;;;;;11.57;4.30;;;19.90;50.90;;;;;;4975233;28;97059;-85
2023/02/09 09:58:26;;;;;;;22.08;4.80;;;20.00;50.70;;;;;;4964403;28;93835;-85
2023/02/09 10:09:00;;;;;;;12.80;4.45;;;20.00;50.90;;;;;;4945061;28;97748;-85
2023/02/09 10:11:36;;;;;;;11.63;4.45;;;20.00;51.00;;;;;;4974472;28;93599;-85
2023/02/09 10:14:02;;;;;;;11.05;4.22;;;20.00;51.10;;;;;;4975266;28;92322;-85
2023/02/09 10:16:33;;;;;;;10.77;4.47;;;20.00;51.00;;;;;;4974405;28;92428;-85
2023/02/09 10:26:06;;;;;;;13.88;4.70;;;20.00;50.90;;;;;;4991467;28;92036;-85
2023/02/09 10:28:41;;;;;;;13.07;4.85;;;20.00;50.90;;;;;;4992078;28;91942;-85
2023/02/09 10:31:19;;;;;;;12.15;4.93;;;20.00;50.90;;;;;;4991354;28;93591;-85
2023/02/09 10:33:49;;;;;;;16.20;5.00;;;20.00;51.00;;;;;;4992325;28;93253;-85
2023/02/09 10:36:24;;;;;;;13.35;4.63;;;20.10;51.00;;;;;;4930892;28;94227;-85
2023/02/09 10:38:51;;;;;;;11.10;4.25;;;20.00;51.30;;;;;;4931770;28;92160;-85
2023/02/09 10:41:33;;;;;;;11.75;4.20;;;20.00;51.20;;;;;;4933060;28;92884;-85
2023/02/09 10:43:59;;;;;;;9.10;4.38;;;20.00;51.30;;;;;;4915861;28;100449;-85
2023/02/09 10:46:24;;;;;;;8.25;4.35;;;20.00;51.20;;;;;;4933067;28;92610;-85
2023/02/09 10:48:50;;;;;;;11.85;4.78;;;20.00;51.20;;;;;;4924248;28;92687;-85
2023/02/09 10:51:30;;;;;;;9.48;4.40;;;20.10;51.30;;;;;;4931706;28;93750;-85
2023/02/09 10:54:00;;;;;;;8.82;4.45;;;20.00;51.20;;;;;;4922229;28;93277;-84
2023/02/09 11:21:59;;;;;;;13.55;4.93;;;20.60;51.10;;;;;;4955320;28;94020;-85
2023/02/09 11:24:49;;;;;;;12.77;4.68;;;20.70;50.90;;;;;;4974280;28;92461;-85
2023/02/09 11:27:39;;;;;;;11.57;4.72;;;20.70;50.00;;;;;;4973826;28;91176;-85
2023/02/09 11:30:10;;;;;;;10.75;4.78;;;20.70;50.40;;;;;;4988587;28;96744;-84
2023/02/09 11:39:48;;;;;;;8.75;4.45;;;20.70;50.90;;;;;;4976531;28;92691;-85
2023/02/09 11:42:42;;;;;;;9.57;4.20;;;20.60;50.90;;;;;;4976477;28;93553;-86
2023/02/09 11:45:36;;;;;;;8.55;3.92;;;20.50;51.30;;;;;;4976247;28;93008;-85
2023/02/09 11:48:41;;;;;;;10.40;4.55;;;20.50;51.30;;;;;;4976464;28;92514;-85
2023/02/09 11:51:15;;;;;;;10.27;3.97;;;20.40;51.50;;;;;;4954584;28;93130;-85
2023/02/09 11:53:46;;;;;;;9.75;4.47;;;20.30;51.70;;;;;;4953939;28;96700;-86
2023/02/09 11:56:14;;;;;;;11.88;5.18;;;20.40;51.30;;;;;;4955672;28;93460;-84
2023/02/09 11:59:20;;;;;;;8.38;4.47;;;20.50;51.20;;;;;;4953824;28;92400;-84
2023/02/09 12:02:06;;;;;;;7.55;3.65;;;20.50;51.10;;;;;;4955348;28;92188;-83
2023/02/09 12:04:40;;;;;;;13.32;5.03;;;20.60;51.30;;;;;;4954380;28;95180;-84
2023/02/09 12:07:33;;;;;;;8.55;4.40;;;20.70;50.90;;;;;;4955244;28;93590;-84
2023/02/09 12:10:02;;;;;;;11.02;4.45;;;20.70;50.60;;;;;;4956833;28;92449;-85
2023/02/09 12:12:30;;;;;;;8.88;4.43;;;20.80;50.60;;;;;;4955647;28;92442;-86
2023/02/09 12:15:21;;;;;;;13.10;5.18;;;20.80;50.30;;;;;;4956138;28;93651;-86
2023/02/09 12:18:04;;;;;;;9.90;4.32;;;20.80;50.10;;;;;;4955684;28;99725;-87
2023/02/09 12:20:35;;;;;;;12.15;4.40;;;20.80;50.20;;;;;;4956323;28;92606;-87
2023/02/09 12:23:14;;;;;;;9.32;4.53;;;20.80;50.80;;;;;;4955800;28;91715;-86
2023/02/09 12:25:58;;;;;;;11.93;5.13;;;20.80;50.90;;;;;;4971742;28;92720;-85
2023/02/09 12:28:30;;;;;;;14.07;4.93;;;20.80;55.10;;;;;;4976042;28;93527;-87
2023/02/09 12:31:12;;;;;;;10.60;4.78;;;20.90;51.80;;;;;;4975797;28;93372;-86
2023/02/09 12:33:59;;;;;;;13.85;4.45;;;20.90;51.60;;;;;;4977247;28;92184;-87
2023/02/09 12:36:31;;;;;;;9.93;4.65;;;20.90;51.50;;;;;;4975061;28;92528;-85
2023/02/09 12:38:57;;;;;;;17.20;6.65;;;20.90;51.80;;;;;;4974856;28;93302;-86
2023/02/09 12:41:42;;;;;;;39.85;11.70;;;20.90;51.50;;;;;;4973374;28;92277;-86
2023/02/09 12:44:08;;;;;;;43.88;15.13;;;21.00;51.70;;;;;;4978023;28;92404;-87
2023/02/09 12:46:53;;;;;;;36.80;13.45;;;20.90;52.80;;;;;;4975984;28;93986;-86
2023/02/09 12:49:28;;;;;;;49.53;14.20;;;20.90;52.20;;;;;;4975251;28;96115;-85
2023/02/09 12:51:59;;;;;;;35.97;12.20;;;20.80;52.30;;;;;;4975061;28;92172;-85
2023/02/09 13:01:10;;;;;;;36.85;12.18;;;20.90;52.30;;;;;;4974646;28;92897;-84
2023/02/09 13:04:02;;;;;;;37.42;13.80;;;21.00;52.50;;;;;;4974441;28;92553;-85
2023/02/09 13:06:46;;;;;;;38.97;12.65;;;20.90;52.30;;;;;;4976344;28;92571;-85
2023/02/09 13:12:38;;;;;;;33.95;12.18;;;20.90;50.60;;;;;;4975477;28;92146;-83
2023/02/09 13:15:15;;;;;;;30.77;11.35;;;21.10;51.90;;;;;;4975263;28;92505;-85
2023/02/09 13:18:04;;;;;;;30.00;11.90;;;21.20;51.80;;;;;;4972872;28;91810;-83
2023/02/09 13:20:46;;;;;;;36.53;10.88;;;21.20;51.70;;;;;;4973504;28;94209;-84
2023/02/09 13:23:40;;;;;;;28.90;10.30;;;21.20;51.50;;;;;;4972187;28;96745;-84
2023/02/09 13:26:20;;;;;;;31.70;11.82;;;21.10;53.80;;;;;;4973831;28;92875;-85
2023/02/09 13:28:46;;;;;;;27.65;11.05;;;21.10;59.50;;;;;;4973652;28;92024;-84
2023/02/09 13:31:29;;;;;;;22.00;9.38;;;21.00;62.40;;;;;;4973558;28;93493;-84
2023/02/09 13:34:24;;;;;;;24.20;10.32;;;21.00;62.00;;;;;;4974763;28;92935;-84
2023/02/09 13:37:04;;;;;;;28.88;10.98;;;20.90;65.00;;;;;;4973872;28;92334;-83
2023/02/09 13:39:35;;;;;;;23.35;10.95;;;20.80;65.70;;;;;;4973386;28;92430;-83
2023/02/09 13:42:01;;;;;;;19.80;9.48;;;20.80;63.30;;;;;;4972929;28;93680;-83
2023/02/09 13:44:30;;;;;;;27.30;12.18;;;20.70;62.00;;;;;;4974254;28;93877;-83
2023/02/09 13:46:58;;;;;;;27.55;11.57;;;20.60;57.60;;;;;;4974444;28;91916;-84
2023/02/09 13:52:47;;;;;;;24.27;11.10;;;20.50;56.80;;;;;;4971945;28;93469;-83
2023/02/09 13:55:17;;;;;;;22.45;10.35;;;20.50;59.00;;;;;;4973658;28;94251;-81
2023/02/09 13:57:48;;;;;;;19.25;10.85;;;20.60;56.70;;;;;;4969786;28;92330;-79
2023/02/09 14:00:14;;;;;;;21.77;10.30;;;20.60;54.50;;;;;;4973280;28;91920;-84
2023/02/09 14:02:45;;;;;;;24.95;11.27;;;20.50;58.00;;;;;;4972266;28;96619;-86
2023/02/09 14:05:19;;;;;;;19.08;9.98;;;20.50;53.60;;;;;;4974774;28;92616;-84
2023/02/09 14:07:44;;;;;;;21.05;10.30;;;20.50;54.30;;;;;;4973192;28;92451;-83
2023/02/09 14:10:15;;;;;;;22.08;9.73;;;20.50;55.00;;;;;;4972465;28;91549;-83
2023/02/09 14:13:10;;;;;;;19.08;8.80;;;20.50;56.30;;;;;;4970171;28;95749;-83
2023/02/09 14:18:27;;;;;;;18.92;8.68;;;20.70;56.70;;;;;;4949643;28;93669;-83
2023/02/09 14:21:31;;;;;;;20.55;9.60;;;20.70;56.80;;;;;;4948484;28;92527;-82
2023/02/09 14:23:59;;;;;;;18.85;9.32;;;20.70;53.00;;;;;;4891351;28;93629;-82
2023/02/09 14:26:52;;;;;;;19.73;8.43;;;20.70;53.20;;;;;;4892825;28;93431;-83
2023/02/09 14:29:24;;;;;;;15.40;8.52;;;20.70;54.40;;;;;;4894423;28;92727;-83
2023/02/09 14:31:54;;;;;;;19.40;8.77;;;20.70;55.10;;;;;;4893430;28;92511;-84
2023/02/09 14:34:37;;;;;;;15.38;7.68;;;20.70;55.00;;;;;;4894039;28;93819;-84
2023/02/09 14:37:12;;;;;;;15.65;8.10;;;20.70;54.80;;;;;;4893907;28;92693;-83
2023/02/09 14:40:12;;;;;;;18.90;7.75;;;20.70;55.30;;;;;;4893390;28;92192;-84
2023/02/09 14:43:01;;;;;;;14.93;7.60;;;20.70;54.40;;;;;;4888651;28;92738;-83
2023/02/09 14:45:45;;;;;;;15.67;7.87;;;20.70;53.60;;;;;;4887763;28;96797;-83
2023/02/09 14:48:20;;;;;;;14.13;7.05;;;20.60;53.20;;;;;;4888027;28;94425;-82
2023/02/09 14:50:57;;;;;;;14.35;6.80;;;20.80;51.00;;;;;;4886539;28;93054;-82
2023/02/09 14:53:26;;;;;;;10.45;6.35;;;21.00;48.30;;;;;;4921511;28;92563;-82
2023/02/09 14:55:56;;;;;;;13.23;7.03;;;21.10;48.00;;;;;;4930688;28;95391;-83
2023/02/09 14:58:25;;;;;;;12.55;7.25;;;21.10;48.60;;;;;;4930936;28;93535;-83
2023/02/09 15:00:53;;;;;;;13.43;7.03;;;21.00;50.20;;;;;;4960871;28;92552;-83
2023/02/09 15:03:19;;;;;;;12.35;6.45;;;20.90;50.80;;;;;;4973575;28;91754;-83
2023/02/09 15:05:46;;;;;;;13.20;6.70;;;20.90;51.00;;;;;;4974517;28;93505;-83
2023/02/09 15:08:19;;;;;;;11.45;6.50;;;20.90;51.20;;;;;;4976544;28;93343;-84
2023/02/09 15:10:52;;;;;;;10.50;6.00;;;20.90;51.20;;;;;;4974646;28;93517;-83
2023/02/09 15:13:18;;;;;;;9.68;5.78;;;21.00;50.80;;;;;;4976112;28;92490;-83
2023/02/09 15:15:45;;;;;;;10.07;5.55;;;21.00;50.60;;;;;;4975635;28;93726;-84
2023/02/09 15:18:21;;;;;;;8.38;4.30;;;21.10;50.10;;;;;;4976402;28;92708;-85
2023/02/09 15:20:47;;;;;;;10.90;6.13;;;21.20;51.00;;;;;;4976567;28;92262;-84
2023/02/09 15:23:13;;;;;;;9.82;6.13;;;21.20;49.80;;;;;;4977919;28;92301;-84
2023/02/09 15:25:40;;;;;;;10.77;5.22;;;21.20;48.90;;;;;;4975202;28;93171;-83
2023/02/09 15:28:15;;;;;;;10.05;5.68;;;21.20;49.10;;;;;;4975188;28;92362;-84
2023/02/09 15:30:41;;;;;;;10.45;5.07;;;21.20;49.40;;;;;;4976093;28;92031;-84
2023/02/09 15:33:11;;;;;;;11.15;5.40;;;21.20;49.90;;;;;;4975736;28;92692;-84
2023/02/09 15:35:38;;;;;;;8.88;5.03;;;21.10;50.10;;;;;;4975204;28;93543;-85
2023/02/09 15:38:04;;;;;;;10.52;5.43;;;21.10;50.30;;;;;;4976034;28;93706;-84
2023/02/09 15:49:20;;;;;;;9.70;4.47;;;21.10;51.20;;;;;;4975909;28;92766;-85
2023/02/09 15:51:46;;;;;;;10.63;5.63;;;21.10;51.20;;;;;;4976368;28;92309;-85
2023/02/09 15:54:19;;;;;;;9.35;5.53;;;21.10;51.40;;;;;;4976416;28;91521;-85
2023/02/09 15:56:45;;;;;;;10.27;4.93;;;21.20;51.60;;;;;;4975588;28;93674;-82
2023/02/09 15:59:22;;;;;;;9.38;4.72;;;21.20;51.60;;;;;;4975041;28;93788;-83
2023/02/09 16:01:49;;;;;;;11.85;5.22;;;21.30;51.20;;;;;;4974180;28;93352;-84
2023/02/09 16:04:15;;;;;;;11.00;4.93;;;21.20;51.30;;;;;;4975170;28;92668;-85
2023/02/09 16:06:49;;;;;;;10.88;5.18;;;21.20;51.20;;;;;;4973411;28;93131;-83
2023/02/09 16:09:20;;;;;;;11.88;5.25;;;21.20;51.10;;;;;;4974666;28;93383;-83
2023/02/09 16:11:47;;;;;;;10.05;5.65;;;21.20;51.40;;;;;;4975160;28;92166;-83
2023/02/09 16:14:21;;;;;;;9.48;5.18;;;21.10;50.30;;;;;;4975870;28;92272;-84
2023/02/09 16:16:48;;;;;;;8.20;4.90;;;21.10;51.00;;;;;;4974229;28;97969;-83
2023/02/09 16:19:14;;;;;;;8.63;4.80;;;21.10;51.20;;;;;;4975823;28;92389;-83